aviador You're here:

KABR Decoded Metar

ABERDEEN in SD, USA
Report Time2017-08-18 18:11:00
UTC Time2017-08-18 18:18:55
Flight Rules vfr VFR
Wind330° at 15 kt
W.Decomp.*RWY 31: 14.6 kt HW 3.4 kt RCW
RWY 35: 13.4 kt HW 6.8 kt LCW
W.Rank330° ranks 6
Current wind is above 330° avg. (11.5)
Visibility9999 m
Phenomena:N/A
Clouds:Scattered 024 Hf
Expected CloudBase > 2,800 ft AGL from Temp-Dew spread
CeilingNone
Temp23°C (ISA +11)
Dew Point16°C (65% RH)
AAT19.6°C
QNH1012 hPa
Density Alt2,812 ft
Elevation1,302 ft
Report Wrong Elevation
Raw Report
KABR 181811Z AUTO 33015KT 10SM SCT024 23/16 A2989 RMK AO2
T02280161=

Extra information for KABR:More info

Metar Taf Metar & Taf Last 4 Metars F.Rules Stats Wind Profile Meteogram Temp Stats Airport Information Weather charts Add Link Nearby VenuesMetar ALERT Operation Metar Decoded Social comments

AIRNAV info for KABR